Airfield :
LOGIN :

Register | Disclaimer

   EN    FR    IT 

 










Legend :    VFR   Marginal VFR   IFR   Intensive IFR   Very Intensive IFR
Visi :
Ceiling :
>= 8 km
>= 3000ft
5 to 8 km
1000 to 3000 ft
1500m to 5 km
500 to 1000 ft
800 to 1500m
200 to 500 ft
< 800m
< 200 ft
Symbols :   Thunderstorms  Fog  Heavy snow  Heavy precipitations  Wind > 20 kt
SIGMETs :     Misc.  Thunderstorms  Icing  Turbulence  Mountain Waves  Volcanic Ashes






- Airport Elevation : 598 ft
- IATA code : BQH


EGKB - Biggin Hill

CURRENT METAR :
  • 061950Z 14007KT 9999 FEW030 03/01 Q1017

EXPIRED METARs :
  • 061920Z 15008KT 9999 FEW040 03/01 Q1017
  • 061850Z 15007KT 9999 FEW040 03/01 Q1017
  • 061820Z 16007KT 9999 FEW040 02/01 Q1017
  • 061750Z 14005KT CAVOK 02/00 Q1017
  • 061720Z 13004KT CAVOK 02/01 Q1017
  • 061650Z 14003KT 050V170 CAVOK 02/01 Q1017
  • 061620Z 13003KT CAVOK 02/01 Q1017
  • 061550Z 12003KT CAVOK 02/00 Q1017
  • 061520Z 14003KT CAVOK 03/01 Q1017

TAF TAF EGKB
Valid from the 06 at 18:00 until the 06 at 22:00 UTC


061700Z 0618/0622 14007KT 9999 FEW040



MET'MAP, your aeronautical weather chart ! - Copyright ORBIFLY December 2007 - Disclaimer

ORBIFLY MET'MAP TEAM :

Programming & Development : Alexandra Zaïnal
Original concept : Baudouin d'Aumeries
Technical & hardware support : Manuel Goepfert
Assistance : Marc-Olivier Méhu




SOURCES & CREDITS :

   NOAA